sensor_id;sensor_type;location;lat;lon;timestamp;P1;durP1;ratioP1;P2;durP2;ratioP2
70313;SDS011;71040;47.526;18.986;2024-02-21T00:03:05;0.80;;;0.47;;
70313;SDS011;71040;47.526;18.986;2024-02-21T00:08:05;0.80;;;0.43;;
70313;SDS011;71040;47.526;18.986;2024-02-21T00:13:06;1.08;;;0.60;;
70313;SDS011;71040;47.526;18.986;2024-02-21T00:18:15;0.85;;;0.50;;
70313;SDS011;71040;47.526;18.986;2024-02-21T00:23:16;1.35;;;0.47;;
70313;SDS011;71040;47.526;18.986;2024-02-21T00:28:28;1.30;;;0.40;;
70313;SDS011;71040;47.526;18.986;2024-02-21T00:33:28;0.95;;;0.80;;
70313;SDS011;71040;47.526;18.986;2024-02-21T00:38:28;0.87;;;0.53;;
70313;SDS011;71040;47.526;18.986;2024-02-21T00:43:29;0.60;;;0.57;;
70313;SDS011;71040;47.526;18.986;2024-02-21T00:48:29;1.10;;;0.50;;
70313;SDS011;71040;47.526;18.986;2024-02-21T00:53:32;0.80;;;0.50;;
70313;SDS011;71040;47.526;18.986;2024-02-21T00:58:32;0.88;;;0.38;;
70313;SDS011;71040;47.526;18.986;2024-02-21T01:03:35;1.30;;;0.50;;
70313;SDS011;71040;47.526;18.986;2024-02-21T01:08:35;0.80;;;0.40;;
70313;SDS011;71040;47.526;18.986;2024-02-21T01:13:38;1.52;;;0.60;;
70313;SDS011;71040;47.526;18.986;2024-02-21T01:18:43;0.93;;;0.40;;
70313;SDS011;71040;47.526;18.986;2024-02-21T01:23:43;1.27;;;0.50;;
70313;SDS011;71040;47.526;18.986;2024-02-21T01:28:44;0.80;;;0.30;;
70313;SDS011;71040;47.526;18.986;2024-02-21T01:33:44;0.67;;;0.30;;
70313;SDS011;71040;47.526;18.986;2024-02-21T01:38:45;0.93;;;0.40;;
70313;SDS011;71040;47.526;18.986;2024-02-21T01:43:45;0.77;;;0.38;;
70313;SDS011;71040;47.526;18.986;2024-02-21T01:48:48;1.20;;;0.52;;
70313;SDS011;71040;47.526;18.986;2024-02-21T01:53:50;0.90;;;0.40;;
70313;SDS011;71040;47.526;18.986;2024-02-21T01:58:54;0.77;;;0.30;;
70313;SDS011;71040;47.526;18.986;2024-02-21T02:03:55;0.55;;;0.40;;
70313;SDS011;71040;47.526;18.986;2024-02-21T02:08:57;0.82;;;0.30;;
70313;SDS011;71040;47.526;18.986;2024-02-21T02:13:57;0.57;;;0.30;;
70313;SDS011;71040;47.526;18.986;2024-02-21T02:18:58;0.97;;;0.40;;
70313;SDS011;71040;47.526;18.986;2024-02-21T02:23:58;0.70;;;0.30;;
70313;SDS011;71040;47.526;18.986;2024-02-21T02:29:01;0.95;;;0.32;;
70313;SDS011;71040;47.526;18.986;2024-02-21T02:34:01;3.25;;;0.35;;
70313;SDS011;71040;47.526;18.986;2024-02-21T02:39:06;1.17;;;0.55;;
70313;SDS011;71040;47.526;18.986;2024-02-21T02:44:08;0.70;;;0.28;;
70313;SDS011;71040;47.526;18.986;2024-02-21T02:49:08;1.63;;;0.30;;
70313;SDS011;71040;47.526;18.986;2024-02-21T02:54:09;0.93;;;0.40;;
70313;SDS011;71040;47.526;18.986;2024-02-21T02:59:14;2.35;;;0.50;;
70313;SDS011;71040;47.526;18.986;2024-02-21T03:04:14;0.63;;;0.50;;
70313;SDS011;71040;47.526;18.986;2024-02-21T03:09:17;1.03;;;0.40;;
70313;SDS011;71040;47.526;18.986;2024-02-21T03:14:17;0.85;;;0.30;;
70313;SDS011;71040;47.526;18.986;2024-02-21T03:19:18;0.87;;;0.30;;
70313;SDS011;71040;47.526;18.986;2024-02-21T03:24:21;1.77;;;0.57;;
70313;SDS011;71040;47.526;18.986;2024-02-21T03:29:25;0.80;;;0.30;;
70313;SDS011;71040;47.526;18.986;2024-02-21T03:34:28;0.93;;;0.40;;
70313;SDS011;71040;47.526;18.986;2024-02-21T03:39:33;0.68;;;0.45;;
70313;SDS011;71040;47.526;18.986;2024-02-21T03:44:36;1.45;;;0.70;;
70313;SDS011;71040;47.526;18.986;2024-02-21T03:49:39;1.92;;;0.70;;
70313;SDS011;71040;47.526;18.986;2024-02-21T03:54:42;1.88;;;0.55;;
70313;SDS011;71040;47.526;18.986;2024-02-21T03:59:42;1.30;;;0.40;;
70313;SDS011;71040;47.526;18.986;2024-02-21T04:04:43;1.17;;;0.30;;
70313;SDS011;71040;47.526;18.986;2024-02-21T04:09:47;1.08;;;0.50;;
70313;SDS011;71040;47.526;18.986;2024-02-21T04:14:50;1.45;;;0.88;;
70313;SDS011;71040;47.526;18.986;2024-02-21T04:19:55;2.08;;;0.47;;
70313;SDS011;71040;47.526;18.986;2024-02-21T04:25:05;0.85;;;0.55;;
70313;SDS011;71040;47.526;18.986;2024-02-21T04:30:08;1.15;;;0.45;;
70313;SDS011;71040;47.526;18.986;2024-02-21T04:35:09;1.48;;;0.50;;
70313;SDS011;71040;47.526;18.986;2024-02-21T04:40:12;1.48;;;0.65;;
70313;SDS011;71040;47.526;18.986;2024-02-21T04:45:16;1.90;;;0.50;;
70313;SDS011;71040;47.526;18.986;2024-02-21T04:50:22;1.23;;;0.55;;
70313;SDS011;71040;47.526;18.986;2024-02-21T04:55:25;1.40;;;0.60;;
70313;SDS011;71040;47.526;18.986;2024-02-21T05:00:25;1.07;;;0.43;;
70313;SDS011;71040;47.526;18.986;2024-02-21T05:05:26;1.47;;;0.77;;
70313;SDS011;71040;47.526;18.986;2024-02-21T05:10:28;1.77;;;0.90;;
70313;SDS011;71040;47.526;18.986;2024-02-21T05:15:29;1.92;;;0.82;;
70313;SDS011;71040;47.526;18.986;2024-02-21T05:20:34;1.73;;;0.70;;
70313;SDS011;71040;47.526;18.986;2024-02-21T05:25:37;1.50;;;0.77;;
70313;SDS011;71040;47.526;18.986;2024-02-21T05:30:37;1.65;;;0.90;;
70313;SDS011;71040;47.526;18.986;2024-02-21T05:35:41;2.15;;;0.90;;
70313;SDS011;71040;47.526;18.986;2024-02-21T05:40:41;2.10;;;0.87;;
70313;SDS011;71040;47.526;18.986;2024-02-21T05:45:41;1.90;;;0.80;;
70313;SDS011;71040;47.526;18.986;2024-02-21T05:50:42;2.15;;;0.80;;
70313;SDS011;71040;47.526;18.986;2024-02-21T05:55:42;1.67;;;0.90;;
70313;SDS011;71040;47.526;18.986;2024-02-21T06:00:45;1.88;;;0.82;;
70313;SDS011;71040;47.526;18.986;2024-02-21T06:05:48;1.63;;;1.00;;
70313;SDS011;71040;47.526;18.986;2024-02-21T06:10:48;1.85;;;0.90;;
70313;SDS011;71040;47.526;18.986;2024-02-21T06:15:52;1.23;;;0.80;;
70313;SDS011;71040;47.526;18.986;2024-02-21T06:20:52;1.15;;;0.57;;
70313;SDS011;71040;47.526;18.986;2024-02-21T06:25:53;1.83;;;1.00;;
70313;SDS011;71040;47.526;18.986;2024-02-21T06:30:55;1.33;;;0.80;;
70313;SDS011;71040;47.526;18.986;2024-02-21T06:35:56;2.70;;;1.53;;
70313;SDS011;71040;47.526;18.986;2024-02-21T06:40:56;2.28;;;0.98;;
70313;SDS011;71040;47.526;18.986;2024-02-21T06:46:00;2.78;;;1.13;;
70313;SDS011;71040;47.526;18.986;2024-02-21T06:51:01;1.42;;;1.10;;
70313;SDS011;71040;47.526;18.986;2024-02-21T06:56:07;2.85;;;1.10;;
70313;SDS011;71040;47.526;18.986;2024-02-21T07:01:09;1.75;;;1.15;;
70313;SDS011;71040;47.526;18.986;2024-02-21T07:06:10;2.45;;;0.90;;
70313;SDS011;71040;47.526;18.986;2024-02-21T07:11:13;3.10;;;1.13;;
70313;SDS011;71040;47.526;18.986;2024-02-21T07:16:16;2.00;;;0.85;;
70313;SDS011;71040;47.526;18.986;2024-02-21T07:21:16;1.67;;;0.85;;
70313;SDS011;71040;47.526;18.986;2024-02-21T07:26:17;1.50;;;0.73;;
70313;SDS011;71040;47.526;18.986;2024-02-21T07:31:17;1.73;;;0.80;;
70313;SDS011;71040;47.526;18.986;2024-02-21T07:36:28;3.53;;;1.08;;
70313;SDS011;71040;47.526;18.986;2024-02-21T07:41:30;2.28;;;0.80;;
70313;SDS011;71040;47.526;18.986;2024-02-21T07:46:41;2.22;;;0.82;;
70313;SDS011;71040;47.526;18.986;2024-02-21T07:51:41;1.57;;;0.60;;
70313;SDS011;71040;47.526;18.986;2024-02-21T07:56:44;1.95;;;0.85;;
70313;SDS011;71040;47.526;18.986;2024-02-21T08:01:44;2.57;;;1.10;;
70313;SDS011;71040;47.526;18.986;2024-02-21T08:06:44;2.13;;;1.07;;
70313;SDS011;71040;47.526;18.986;2024-02-21T08:11:48;1.15;;;0.50;;
70313;SDS011;71040;47.526;18.986;2024-02-21T08:16:51;1.58;;;0.68;;
70313;SDS011;71040;47.526;18.986;2024-02-21T08:21:55;2.67;;;1.13;;
70313;SDS011;71040;47.526;18.986;2024-02-21T08:26:56;2.47;;;0.80;;
70313;SDS011;71040;47.526;18.986;2024-02-21T08:31:56;1.87;;;1.10;;
70313;SDS011;71040;47.526;18.986;2024-02-21T08:36:59;3.00;;;0.87;;
70313;SDS011;71040;47.526;18.986;2024-02-21T08:42:00;1.33;;;0.60;;
70313;SDS011;71040;47.526;18.986;2024-02-21T08:47:00;1.27;;;0.63;;
70313;SDS011;71040;47.526;18.986;2024-02-21T08:52:03;2.10;;;0.80;;
70313;SDS011;71040;47.526;18.986;2024-02-21T08:57:06;1.23;;;0.60;;
70313;SDS011;71040;47.526;18.986;2024-02-21T09:02:09;2.25;;;0.70;;
70313;SDS011;71040;47.526;18.986;2024-02-21T09:07:10;1.93;;;0.80;;
70313;SDS011;71040;47.526;18.986;2024-02-21T09:12:11;4.43;;;1.17;;
70313;SDS011;71040;47.526;18.986;2024-02-21T09:17:11;5.20;;;2.20;;
70313;SDS011;71040;47.526;18.986;2024-02-21T09:22:12;11.80;;;3.67;;
70313;SDS011;71040;47.526;18.986;2024-02-21T09:27:15;13.10;;;5.03;;
70313;SDS011;71040;47.526;18.986;2024-02-21T09:32:15;13.17;;;4.33;;
70313;SDS011;71040;47.526;18.986;2024-02-21T09:37:15;12.10;;;3.20;;
70313;SDS011;71040;47.526;18.986;2024-02-21T09:42:16;7.03;;;2.37;;
70313;SDS011;71040;47.526;18.986;2024-02-21T09:47:24;14.70;;;4.15;;
70313;SDS011;71040;47.526;18.986;2024-02-21T09:52:34;8.27;;;2.40;;
70313;SDS011;71040;47.526;18.986;2024-02-21T09:57:39;13.82;;;6.15;;
70313;SDS011;71040;47.526;18.986;2024-02-21T10:02:42;9.10;;;3.88;;
70313;SDS011;71040;47.526;18.986;2024-02-21T10:07:43;7.60;;;2.95;;
70313;SDS011;71040;47.526;18.986;2024-02-21T10:12:53;9.95;;;3.80;;
70313;SDS011;71040;47.526;18.986;2024-02-21T10:18:04;11.98;;;3.33;;
70313;SDS011;71040;47.526;18.986;2024-02-21T10:28:15;8.88;;;2.25;;
70313;SDS011;71040;47.526;18.986;2024-02-21T10:33:17;8.90;;;2.63;;
70313;SDS011;71040;47.526;18.986;2024-02-21T10:38:20;14.80;;;2.47;;
70313;SDS011;71040;47.526;18.986;2024-02-21T10:43:21;8.67;;;2.73;;
70313;SDS011;71040;47.526;18.986;2024-02-21T10:48:29;9.38;;;3.10;;
70313;SDS011;71040;47.526;18.986;2024-02-21T10:59:16;12.43;;;3.15;;
70313;SDS011;71040;47.526;18.986;2024-02-21T11:04:18;9.13;;;3.15;;
70313;SDS011;71040;47.526;18.986;2024-02-21T11:09:18;10.85;;;3.25;;
70313;SDS011;71040;47.526;18.986;2024-02-21T11:14:33;11.23;;;2.50;;
70313;SDS011;71040;47.526;18.986;2024-02-21T11:19:37;12.90;;;2.90;;
70313;SDS011;71040;47.526;18.986;2024-02-21T11:24:37;12.90;;;2.93;;
70313;SDS011;71040;47.526;18.986;2024-02-21T11:29:44;11.00;;;3.47;;
70313;SDS011;71040;47.526;18.986;2024-02-21T11:40:06;9.20;;;2.80;;
70313;SDS011;71040;47.526;18.986;2024-02-21T11:45:10;10.30;;;2.83;;
70313;SDS011;71040;47.526;18.986;2024-02-21T11:50:10;12.07;;;3.20;;
70313;SDS011;71040;47.526;18.986;2024-02-21T11:55:12;11.68;;;2.75;;
70313;SDS011;71040;47.526;18.986;2024-02-21T12:00:15;8.85;;;3.42;;
70313;SDS011;71040;47.526;18.986;2024-02-21T12:05:27;12.40;;;2.72;;
70313;SDS011;71040;47.526;18.986;2024-02-21T12:10:28;13.60;;;2.70;;
70313;SDS011;71040;47.526;18.986;2024-02-21T12:15:33;6.57;;;2.45;;
70313;SDS011;71040;47.526;18.986;2024-02-21T12:20:38;12.02;;;2.28;;
70313;SDS011;71040;47.526;18.986;2024-02-21T12:25:40;7.95;;;2.13;;
70313;SDS011;71040;47.526;18.986;2024-02-21T12:30:41;6.38;;;2.65;;
70313;SDS011;71040;47.526;18.986;2024-02-21T12:35:45;8.50;;;2.38;;
70313;SDS011;71040;47.526;18.986;2024-02-21T12:40:49;9.90;;;1.88;;
70313;SDS011;71040;47.526;18.986;2024-02-21T12:45:50;9.40;;;2.38;;
70313;SDS011;71040;47.526;18.986;2024-02-21T12:50:50;9.37;;;2.40;;
70313;SDS011;71040;47.526;18.986;2024-02-21T12:55:51;12.57;;;2.60;;
70313;SDS011;71040;47.526;18.986;2024-02-21T13:00:54;8.85;;;2.00;;
70313;SDS011;71040;47.526;18.986;2024-02-21T13:05:54;8.53;;;2.20;;
70313;SDS011;71040;47.526;18.986;2024-02-21T13:10:59;10.80;;;2.85;;
70313;SDS011;71040;47.526;18.986;2024-02-21T13:15:59;10.40;;;2.20;;
70313;SDS011;71040;47.526;18.986;2024-02-21T13:21:00;9.57;;;2.92;;
70313;SDS011;71040;47.526;18.986;2024-02-21T13:26:00;8.77;;;2.28;;
70313;SDS011;71040;47.526;18.986;2024-02-21T13:31:03;11.53;;;2.10;;
70313;SDS011;71040;47.526;18.986;2024-02-21T13:36:04;10.57;;;2.30;;
70313;SDS011;71040;47.526;18.986;2024-02-21T13:41:07;8.50;;;1.98;;
70313;SDS011;71040;47.526;18.986;2024-02-21T13:46:09;9.48;;;2.05;;
70313;SDS011;71040;47.526;18.986;2024-02-21T13:51:11;6.53;;;2.17;;
70313;SDS011;71040;47.526;18.986;2024-02-21T13:56:16;7.68;;;2.08;;
70313;SDS011;71040;47.526;18.986;2024-02-21T14:01:17;10.55;;;2.45;;
70313;SDS011;71040;47.526;18.986;2024-02-21T14:06:20;13.88;;;4.10;;
70313;SDS011;71040;47.526;18.986;2024-02-21T14:11:22;18.67;;;4.30;;
70313;SDS011;71040;47.526;18.986;2024-02-21T14:16:23;15.23;;;3.72;;
70313;SDS011;71040;47.526;18.986;2024-02-21T14:21:23;12.43;;;3.87;;
70313;SDS011;71040;47.526;18.986;2024-02-21T14:26:28;10.23;;;3.65;;
70313;SDS011;71040;47.526;18.986;2024-02-21T14:31:31;7.97;;;3.08;;
70313;SDS011;71040;47.526;18.986;2024-02-21T14:36:34;11.63;;;3.53;;
70313;SDS011;71040;47.526;18.986;2024-02-21T14:41:37;11.48;;;3.33;;
70313;SDS011;71040;47.526;18.986;2024-02-21T14:46:40;8.85;;;2.85;;
70313;SDS011;71040;47.526;18.986;2024-02-21T14:51:40;6.32;;;2.63;;
70313;SDS011;71040;47.526;18.986;2024-02-21T14:56:45;7.88;;;2.72;;
70313;SDS011;71040;47.526;18.986;2024-02-21T15:01:46;9.90;;;2.85;;
70313;SDS011;71040;47.526;18.986;2024-02-21T15:06:49;6.20;;;2.88;;
70313;SDS011;71040;47.526;18.986;2024-02-21T15:11:49;5.03;;;2.37;;
70313;SDS011;71040;47.526;18.986;2024-02-21T15:16:52;4.85;;;1.90;;
70313;SDS011;71040;47.526;18.986;2024-02-21T15:21:52;4.90;;;2.10;;
70313;SDS011;71040;47.526;18.986;2024-02-21T15:26:53;4.80;;;2.00;;
70313;SDS011;71040;47.526;18.986;2024-02-21T15:31:54;6.70;;;1.80;;
70313;SDS011;71040;47.526;18.986;2024-02-21T15:36:54;4.53;;;2.10;;
70313;SDS011;71040;47.526;18.986;2024-02-21T15:41:54;4.33;;;1.67;;
70313;SDS011;71040;47.526;18.986;2024-02-21T15:46:56;4.25;;;1.60;;
70313;SDS011;71040;47.526;18.986;2024-02-21T15:52:01;3.25;;;1.60;;
70313;SDS011;71040;47.526;18.986;2024-02-21T15:57:02;6.38;;;1.63;;
70313;SDS011;71040;47.526;18.986;2024-02-21T16:02:07;5.63;;;1.48;;
70313;SDS011;71040;47.526;18.986;2024-02-21T16:07:07;3.65;;;1.42;;
70313;SDS011;71040;47.526;18.986;2024-02-21T16:12:12;3.92;;;1.17;;
70313;SDS011;71040;47.526;18.986;2024-02-21T16:17:14;5.32;;;1.73;;
70313;SDS011;71040;47.526;18.986;2024-02-21T16:22:14;4.93;;;2.30;;
70313;SDS011;71040;47.526;18.986;2024-02-21T16:27:15;2.88;;;1.25;;
70313;SDS011;71040;47.526;18.986;2024-02-21T16:32:18;3.70;;;1.40;;
70313;SDS011;71040;47.526;18.986;2024-02-21T16:37:21;3.15;;;1.30;;
70313;SDS011;71040;47.526;18.986;2024-02-21T16:42:24;2.03;;;0.87;;
70313;SDS011;71040;47.526;18.986;2024-02-21T16:47:24;2.25;;;1.10;;
70313;SDS011;71040;47.526;18.986;2024-02-21T16:52:25;3.42;;;1.00;;
70313;SDS011;71040;47.526;18.986;2024-02-21T16:57:26;2.80;;;0.88;;
70313;SDS011;71040;47.526;18.986;2024-02-21T17:02:27;2.77;;;1.07;;
70313;SDS011;71040;47.526;18.986;2024-02-21T17:07:29;2.92;;;0.95;;
70313;SDS011;71040;47.526;18.986;2024-02-21T17:12:30;2.90;;;1.20;;
70313;SDS011;71040;47.526;18.986;2024-02-21T17:17:30;3.77;;;1.30;;
70313;SDS011;71040;47.526;18.986;2024-02-21T17:22:33;3.25;;;1.15;;
70313;SDS011;71040;47.526;18.986;2024-02-21T17:27:34;2.40;;;1.17;;
70313;SDS011;71040;47.526;18.986;2024-02-21T17:32:35;2.50;;;0.82;;
70313;SDS011;71040;47.526;18.986;2024-02-21T17:37:35;1.88;;;0.93;;
70313;SDS011;71040;47.526;18.986;2024-02-21T17:42:38;2.60;;;1.00;;
70313;SDS011;71040;47.526;18.986;2024-02-21T17:47:47;2.58;;;0.98;;
70313;SDS011;71040;47.526;18.986;2024-02-21T17:52:51;3.78;;;0.90;;
70313;SDS011;71040;47.526;18.986;2024-02-21T17:57:51;2.38;;;1.00;;
70313;SDS011;71040;47.526;18.986;2024-02-21T18:02:52;1.92;;;0.90;;
70313;SDS011;71040;47.526;18.986;2024-02-21T18:07:55;1.65;;;1.00;;
70313;SDS011;71040;47.526;18.986;2024-02-21T18:12:55;2.75;;;1.02;;
70313;SDS011;71040;47.526;18.986;2024-02-21T18:18:03;2.30;;;1.08;;
70313;SDS011;71040;47.526;18.986;2024-02-21T18:23:04;3.13;;;1.35;;
70313;SDS011;71040;47.526;18.986;2024-02-21T18:28:04;3.43;;;1.50;;
70313;SDS011;71040;47.526;18.986;2024-02-21T18:33:04;2.55;;;1.23;;
70313;SDS011;71040;47.526;18.986;2024-02-21T18:38:05;4.17;;;1.30;;
70313;SDS011;71040;47.526;18.986;2024-02-21T18:43:05;3.10;;;1.02;;
70313;SDS011;71040;47.526;18.986;2024-02-21T18:48:11;3.15;;;1.30;;
70313;SDS011;71040;47.526;18.986;2024-02-21T18:53:12;2.28;;;1.10;;
70313;SDS011;71040;47.526;18.986;2024-02-21T18:58:19;2.67;;;1.70;;
70313;SDS011;71040;47.526;18.986;2024-02-21T19:03:20;4.30;;;1.20;;
70313;SDS011;71040;47.526;18.986;2024-02-21T19:08:20;2.77;;;1.03;;
70313;SDS011;71040;47.526;18.986;2024-02-21T19:13:20;3.47;;;0.90;;
70313;SDS011;71040;47.526;18.986;2024-02-21T19:18:23;2.22;;;0.85;;
70313;SDS011;71040;47.526;18.986;2024-02-21T19:23:24;2.10;;;1.20;;
70313;SDS011;71040;47.526;18.986;2024-02-21T19:28:24;3.67;;;1.20;;
70313;SDS011;71040;47.526;18.986;2024-02-21T19:33:24;2.90;;;1.13;;
70313;SDS011;71040;47.526;18.986;2024-02-21T19:38:30;2.30;;;0.93;;
70313;SDS011;71040;47.526;18.986;2024-02-21T19:43:33;2.72;;;1.10;;
70313;SDS011;71040;47.526;18.986;2024-02-21T19:48:36;2.90;;;1.33;;
70313;SDS011;71040;47.526;18.986;2024-02-21T19:53:37;1.50;;;0.80;;
70313;SDS011;71040;47.526;18.986;2024-02-21T19:58:40;2.30;;;1.10;;
70313;SDS011;71040;47.526;18.986;2024-02-21T20:03:42;2.08;;;1.20;;
70313;SDS011;71040;47.526;18.986;2024-02-21T20:08:44;2.70;;;1.10;;
70313;SDS011;71040;47.526;18.986;2024-02-21T20:13:44;2.23;;;1.30;;
70313;SDS011;71040;47.526;18.986;2024-02-21T20:18:54;2.30;;;1.42;;
70313;SDS011;71040;47.526;18.986;2024-02-21T20:24:00;2.53;;;1.30;;
70313;SDS011;71040;47.526;18.986;2024-02-21T20:29:09;2.92;;;1.25;;
70313;SDS011;71040;47.526;18.986;2024-02-21T20:34:13;2.95;;;1.30;;
70313;SDS011;71040;47.526;18.986;2024-02-21T20:39:16;2.65;;;1.13;;
70313;SDS011;71040;47.526;18.986;2024-02-21T20:44:18;1.83;;;1.15;;
70313;SDS011;71040;47.526;18.986;2024-02-21T20:49:19;1.57;;;0.93;;
70313;SDS011;71040;47.526;18.986;2024-02-21T20:54:19;2.63;;;1.33;;
70313;SDS011;71040;47.526;18.986;2024-02-21T20:59:22;2.50;;;1.13;;
70313;SDS011;71040;47.526;18.986;2024-02-21T21:04:23;2.90;;;0.95;;
70313;SDS011;71040;47.526;18.986;2024-02-21T21:09:25;2.55;;;1.33;;
70313;SDS011;71040;47.526;18.986;2024-02-21T21:14:26;2.30;;;1.10;;
70313;SDS011;71040;47.526;18.986;2024-02-21T21:19:30;2.38;;;1.10;;
70313;SDS011;71040;47.526;18.986;2024-02-21T21:24:30;1.92;;;1.00;;
70313;SDS011;71040;47.526;18.986;2024-02-21T21:29:31;2.83;;;1.07;;
70313;SDS011;71040;47.526;18.986;2024-02-21T21:34:35;1.88;;;1.10;;
70313;SDS011;71040;47.526;18.986;2024-02-21T21:39:38;2.58;;;1.15;;
70313;SDS011;71040;47.526;18.986;2024-02-21T21:44:41;2.08;;;1.33;;
70313;SDS011;71040;47.526;18.986;2024-02-21T21:49:42;2.50;;;1.20;;
70313;SDS011;71040;47.526;18.986;2024-02-21T21:54:42;1.83;;;0.95;;
70313;SDS011;71040;47.526;18.986;2024-02-21T21:59:45;1.77;;;0.80;;
70313;SDS011;71040;47.526;18.986;2024-02-21T22:04:46;1.93;;;1.00;;
70313;SDS011;71040;47.526;18.986;2024-02-21T22:09:46;2.30;;;1.23;;
70313;SDS011;71040;47.526;18.986;2024-02-21T22:14:46;1.83;;;0.95;;
70313;SDS011;71040;47.526;18.986;2024-02-21T22:19:47;1.73;;;1.07;;
70313;SDS011;71040;47.526;18.986;2024-02-21T22:24:50;1.73;;;0.87;;
70313;SDS011;71040;47.526;18.986;2024-02-21T22:29:53;1.38;;;0.70;;
70313;SDS011;71040;47.526;18.986;2024-02-21T22:34:57;1.60;;;1.02;;
70313;SDS011;71040;47.526;18.986;2024-02-21T22:39:58;1.75;;;1.00;;
70313;SDS011;71040;47.526;18.986;2024-02-21T22:45:01;2.70;;;1.38;;
70313;SDS011;71040;47.526;18.986;2024-02-21T22:50:03;1.23;;;0.97;;
70313;SDS011;71040;47.526;18.986;2024-02-21T22:55:04;1.98;;;1.15;;
70313;SDS011;71040;47.526;18.986;2024-02-21T23:00:11;1.88;;;1.00;;
70313;SDS011;71040;47.526;18.986;2024-02-21T23:05:15;1.55;;;1.00;;
70313;SDS011;71040;47.526;18.986;2024-02-21T23:10:16;2.17;;;1.00;;
70313;SDS011;71040;47.526;18.986;2024-02-21T23:15:16;1.73;;;0.93;;
70313;SDS011;71040;47.526;18.986;2024-02-21T23:20:19;2.33;;;1.20;;
70313;SDS011;71040;47.526;18.986;2024-02-21T23:25:22;1.70;;;1.00;;
70313;SDS011;71040;47.526;18.986;2024-02-21T23:30:23;2.88;;;1.20;;
70313;SDS011;71040;47.526;18.986;2024-02-21T23:35:24;2.03;;;1.00;;
70313;SDS011;71040;47.526;18.986;2024-02-21T23:40:25;2.22;;;0.95;;
70313;SDS011;71040;47.526;18.986;2024-02-21T23:45:25;1.60;;;1.10;;
70313;SDS011;71040;47.526;18.986;2024-02-21T23:50:26;2.15;;;0.90;;
70313;SDS011;71040;47.526;18.986;2024-02-21T23:55:27;2.38;;;0.90;;
